createdAt,value
2022-12-25T00:02:35.000Z,6.24
2022-12-25T00:07:35.000Z,5.47
2022-12-25T00:12:34.000Z,4.61
2022-12-25T00:17:34.000Z,4.74
2022-12-25T00:22:34.000Z,4.98
2022-12-25T00:27:35.000Z,4.84
2022-12-25T00:32:34.000Z,4.84
2022-12-25T00:37:35.000Z,5.07
2022-12-25T00:47:35.000Z,4.81
2022-12-25T00:52:35.000Z,4.3
2022-12-25T18:53:01.000Z,17.39
2022-12-25T18:57:35.000Z,16.54
2022-12-25T19:02:35.000Z,16.39
2022-12-25T19:07:35.000Z,15.89
2022-12-25T19:12:35.000Z,15.58
2022-12-25T19:17:42.000Z,15.58
2022-12-25T19:22:35.000Z,14.5
2022-12-25T19:27:35.000Z,13.97
2022-12-25T19:32:34.000Z,12.91
2022-12-25T19:37:35.000Z,12.62
2022-12-25T19:42:35.000Z,12.11
2022-12-25T19:47:34.000Z,10.8
2022-12-25T19:52:35.000Z,6.41
2022-12-25T19:57:35.000Z,4.66
2022-12-25T20:02:35.000Z,6.49
2022-12-25T20:07:34.000Z,6.68
2022-12-25T20:12:35.000Z,5.58
2022-12-25T20:17:34.000Z,1.8
2022-12-25T20:22:35.000Z,2.02
2022-12-25T20:27:34.000Z,2.16
2022-12-25T20:32:35.000Z,2.16
2022-12-25T20:37:35.000Z,2.69
2022-12-25T20:42:35.000Z,3.5
2022-12-25T20:47:35.000Z,4.78
2022-12-25T20:52:35.000Z,6.33
2022-12-25T20:57:35.000Z,4.59
2022-12-25T21:02:46.000Z,3.77
2022-12-25T21:07:35.000Z,3.18
2022-12-25T21:12:34.000Z,3.27
2022-12-25T21:17:34.000Z,3.44
2022-12-25T21:22:35.000Z,3.05
2022-12-25T21:27:35.000Z,3.08
2022-12-25T21:32:34.000Z,3.49
2022-12-25T21:37:35.000Z,3.97
2022-12-25T21:42:35.000Z,3.86
2022-12-25T21:47:35.000Z,3.86
2022-12-25T21:52:35.000Z,5.23
2022-12-25T21:57:35.000Z,5.43
2022-12-25T22:02:35.000Z,5.84
2022-12-25T22:07:35.000Z,4.48
2022-12-25T22:12:43.000Z,4.56
2022-12-25T22:17:35.000Z,4.2
2022-12-25T22:22:35.000Z,3.03
2022-12-25T22:27:34.000Z,3.53
2022-12-25T22:32:35.000Z,3.79
2022-12-25T22:37:35.000Z,2.94
2022-12-25T22:42:35.000Z,3.11
2022-12-25T22:47:35.000Z,2.69
2022-12-25T22:52:34.000Z,2.88
2022-12-25T22:57:34.000Z,3.17
2022-12-25T23:02:35.000Z,2.96
2022-12-25T23:07:35.000Z,2.96
2022-12-25T23:12:34.000Z,3.21
2022-12-25T23:17:35.000Z,3.86
2022-12-25T23:22:34.000Z,3.15
2022-12-25T23:27:34.000Z,3.35
2022-12-25T23:32:35.000Z,2.88
2022-12-25T23:37:34.000Z,3.2
2022-12-25T23:42:35.000Z,3.81
2022-12-25T23:47:34.000Z,4.29
2022-12-25T23:52:35.000Z,5.74
2022-12-25T23:57:35.000Z,5.64
